Time;durP1;ratioP1;P1;durP2;ratioP2;P2;SDS_P1;SDS_P2;PMS_P1;PMS_P2;Temp;Humidity;BMP_temperature;BMP_pressure;BME280_temperature;BME280_humidity;BME280_pressure;Samples;Min_cycle;Max_cycle;Signal;HPM_P1;HPM_P2
2020/12/09 00:01:42;;;;;;;65.50;41.40;;;4.50;99.90;;;;;;5044975;28;20486;-83
2020/12/09 00:04:11;;;;;;;70.10;42.03;;;4.50;99.90;;;;;;5049368;28;20487;-82
2020/12/09 00:06:39;;;;;;;69.83;43.17;;;4.50;99.90;;;;;;5054866;28;20470;-83
2020/12/09 00:09:09;;;;;;;71.83;42.27;;;4.50;99.90;;;;;;5054127;28;20976;-83
2020/12/09 00:11:37;;;;;;;76.07;43.17;;;4.40;99.90;;;;;;5052761;28;20486;-83
2020/12/09 00:14:05;;;;;;;69.30;41.47;;;4.40;99.90;;;;;;5057331;28;20469;-83
2020/12/09 00:16:33;;;;;;;71.30;41.23;;;4.30;99.90;;;;;;5056431;28;20993;-83
2020/12/09 00:19:03;;;;;;;70.17;41.77;;;4.20;99.90;;;;;;5054155;28;20571;-83
2020/12/09 00:21:32;;;;;;;68.33;42.37;;;4.30;99.90;;;;;;5055929;28;20497;-82
2020/12/09 00:24:02;;;;;;;72.20;40.90;;;4.20;99.90;;;;;;5056053;28;20858;-82
2020/12/09 00:26:32;;;;;;;66.97;40.30;;;4.10;99.90;;;;;;5056413;28;20502;-83
2020/12/09 00:29:00;;;;;;;69.90;42.00;;;4.10;99.90;;;;;;5059239;28;20558;-83
2020/12/09 00:31:31;;;;;;;67.60;40.17;;;4.00;99.90;;;;;;5058381;28;20493;-83
2020/12/09 00:34:00;;;;;;;72.67;42.53;;;4.00;99.90;;;;;;5060570;28;20488;-83
2020/12/09 00:36:28;;;;;;;76.47;43.83;;;3.90;99.90;;;;;;5058318;28;20487;-83
2020/12/09 00:38:56;;;;;;;77.97;44.00;;;3.90;99.90;;;;;;5059541;28;20486;-83
2020/12/09 00:41:26;;;;;;;71.83;43.47;;;3.90;99.90;;;;;;5053958;28;20963;-83
2020/12/09 00:43:55;;;;;;;64.60;35.43;;;4.00;99.90;;;;;;5048673;28;20485;-83
2020/12/09 00:46:25;;;;;;;77.10;42.03;;;4.00;99.90;;;;;;5053055;28;20501;-82
2020/12/09 00:48:56;;;;;;;72.60;42.50;;;3.90;99.90;;;;;;5039362;28;20554;-83
2020/12/09 00:51:27;;;;;;;72.67;42.67;;;3.90;99.90;;;;;;5058081;28;20472;-83
2020/12/09 00:53:57;;;;;;;71.97;44.57;;;3.90;99.90;;;;;;5059512;28;20812;-83
2020/12/09 00:56:29;;;;;;;72.90;40.63;;;3.90;99.90;;;;;;5058906;28;20538;-82
2020/12/09 00:59:03;;;;;;;74.87;43.33;;;3.90;99.90;;;;;;5060268;28;20865;-82
2020/12/09 01:01:32;;;;;;;73.30;43.70;;;3.80;99.90;;;;;;5066879;28;20486;-83
2020/12/09 01:04:05;;;;;;;80.23;45.97;;;3.90;99.90;;;;;;5039041;28;20501;-83
2020/12/09 01:06:34;;;;;;;75.63;44.00;;;3.80;99.90;;;;;;5039519;28;20483;-83
2020/12/09 01:09:05;;;;;;;73.07;41.37;;;3.80;99.90;;;;;;5041024;28;20480;-82
2020/12/09 01:11:32;;;;;;;73.23;41.53;;;3.80;99.90;;;;;;5060283;28;20477;-83
2020/12/09 01:14:00;;;;;;;77.43;44.43;;;3.80;99.90;;;;;;5060774;28;20883;-83
2020/12/09 01:16:28;;;;;;;79.33;43.23;;;3.70;99.90;;;;;;5059544;28;20931;-83
2020/12/09 01:18:56;;;;;;;79.60;45.20;;;3.70;99.90;;;;;;5060433;28;21033;-83
2020/12/09 01:21:28;;;;;;;79.27;44.60;;;3.60;99.90;;;;;;5060686;28;20477;-83
2020/12/09 01:23:55;;;;;;;80.00;44.17;;;3.70;99.90;;;;;;5060755;28;20486;-82
2020/12/09 01:26:23;;;;;;;74.30;43.00;;;3.60;99.90;;;;;;5060868;28;20510;-83
2020/12/09 01:28:50;;;;;;;71.80;40.00;;;3.70;99.90;;;;;;5060657;28;20480;-83
2020/12/09 01:31:20;;;;;;;74.00;39.03;;;3.60;99.90;;;;;;5060250;28;20470;-82
2020/12/09 01:33:49;;;;;;;76.17;41.60;;;3.50;99.90;;;;;;5057602;28;20482;-82
2020/12/09 01:36:21;;;;;;;69.37;40.77;;;3.50;99.90;;;;;;5057954;28;20871;-83
2020/12/09 01:38:49;;;;;;;77.47;42.83;;;3.50;99.90;;;;;;5056268;28;20482;-83
2020/12/09 01:41:18;;;;;;;74.50;41.63;;;3.50;99.90;;;;;;5055306;28;20478;-83
2020/12/09 01:43:46;;;;;;;70.10;40.33;;;3.50;99.90;;;;;;5049359;28;20472;-82
2020/12/09 01:46:16;;;;;;;68.67;38.90;;;3.50;99.90;;;;;;5039861;28;20473;-83
2020/12/09 01:48:45;;;;;;;71.77;39.67;;;3.40;99.90;;;;;;5050686;28;20489;-83
2020/12/09 01:51:14;;;;;;;74.60;38.53;;;3.30;99.90;;;;;;5059104;28;20484;-83
2020/12/09 01:53:42;;;;;;;83.67;42.23;;;3.40;99.90;;;;;;5057834;28;20536;-83
2020/12/09 01:56:09;;;;;;;80.47;42.63;;;3.50;99.90;;;;;;5059222;28;20486;-83
2020/12/09 01:58:36;;;;;;;74.43;40.77;;;3.60;99.90;;;;;;5057351;28;20464;-83
2020/12/09 02:01:04;;;;;;;80.87;42.37;;;3.60;99.90;;;;;;5059467;28;20492;-82
2020/12/09 02:03:32;;;;;;;85.27;43.67;;;3.50;99.90;;;;;;5057437;28;20491;-82
2020/12/09 02:05:59;;;;;;;78.23;41.90;;;3.50;99.90;;;;;;5057704;28;20482;-82
2020/12/09 02:08:27;;;;;;;81.63;42.73;;;3.40;99.90;;;;;;5058768;28;20517;-83
2020/12/09 02:10:58;;;;;;;84.93;44.13;;;3.40;99.90;;;;;;5059451;28;21218;-83
2020/12/09 02:13:26;;;;;;;75.83;42.53;;;3.40;99.90;;;;;;5058898;28;21268;-83
2020/12/09 02:15:54;;;;;;;86.07;44.13;;;3.40;99.90;;;;;;5057635;28;20549;-83
2020/12/09 02:18:22;;;;;;;81.40;44.63;;;3.40;99.90;;;;;;5058004;28;21148;-83
2020/12/09 02:20:50;;;;;;;85.97;45.07;;;3.40;99.90;;;;;;5058224;28;20488;-83
2020/12/09 02:23:18;;;;;;;89.57;45.90;;;3.50;99.90;;;;;;5057031;28;20532;-83
2020/12/09 02:25:46;;;;;;;86.40;46.03;;;3.40;99.90;;;;;;5058559;28;20507;-82
2020/12/09 02:28:14;;;;;;;84.90;44.70;;;3.50;99.90;;;;;;5058958;28;20510;-83
2020/12/09 02:30:41;;;;;;;90.80;45.17;;;3.50;99.90;;;;;;5058181;28;20487;-83
2020/12/09 02:33:09;;;;;;;88.53;45.50;;;3.50;99.90;;;;;;5056887;28;20475;-82
2020/12/09 02:35:36;;;;;;;80.33;44.07;;;3.50;99.90;;;;;;5045299;28;20478;-83
2020/12/09 02:38:04;;;;;;;84.43;43.80;;;3.50;99.90;;;;;;5037444;28;20557;-83
2020/12/09 02:40:32;;;;;;;82.63;42.93;;;3.50;99.90;;;;;;5064563;28;20475;-82
2020/12/09 02:43:00;;;;;;;82.47;41.53;;;3.40;99.90;;;;;;5055955;28;20526;-83
2020/12/09 02:45:27;;;;;;;79.17;43.63;;;3.50;99.90;;;;;;5043557;28;20473;-82
2020/12/09 02:47:55;;;;;;;83.93;43.97;;;3.40;99.90;;;;;;5061268;28;20484;-83
2020/12/09 02:50:23;;;;;;;84.07;41.33;;;3.50;99.90;;;;;;5037791;28;20483;-81
2020/12/09 02:52:50;;;;;;;79.60;41.87;;;3.50;99.90;;;;;;5037818;28;20966;-82
2020/12/09 02:55:19;;;;;;;73.00;39.40;;;3.50;99.90;;;;;;5040684;28;20496;-83
2020/12/09 02:57:49;;;;;;;73.90;38.70;;;3.50;99.90;;;;;;5056904;28;20559;-82
2020/12/09 03:03:05;;;;;;;71.80;37.50;;;3.40;99.90;;;;;;5866493;22;20564;-49
2020/12/09 03:05:33;;;;;;;74.80;37.70;;;3.40;99.90;;;;;;4989731;28;20488;-49
2020/12/09 03:08:01;;;;;;;70.30;38.13;;;3.40;99.90;;;;;;4991151;28;20482;-48
2020/12/09 03:10:28;;;;;;;77.03;38.80;;;3.40;99.90;;;;;;4989365;28;20499;-48
2020/12/09 03:12:57;;;;;;;77.30;39.37;;;3.50;99.90;;;;;;4990392;28;20559;-48
2020/12/09 03:15:25;;;;;;;74.13;38.40;;;3.40;99.90;;;;;;4990194;28;20484;-48
2020/12/09 03:17:52;;;;;;;74.53;37.73;;;3.40;99.90;;;;;;4990489;28;20489;-50
2020/12/09 03:20:23;;;;;;;74.17;40.07;;;3.40;99.90;;;;;;4989533;28;20486;-47
2020/12/09 03:22:51;;;;;;;82.07;41.00;;;3.40;99.90;;;;;;4990686;28;20485;-48
2020/12/09 03:25:18;;;;;;;80.60;41.10;;;3.30;99.90;;;;;;4989993;28;20500;-49
2020/12/09 03:27:46;;;;;;;80.53;41.23;;;3.30;99.90;;;;;;4990006;28;20485;-48
2020/12/09 03:30:14;;;;;;;78.53;40.70;;;3.40;99.90;;;;;;4990391;28;20476;-48
2020/12/09 03:32:41;;;;;;;82.83;41.37;;;3.40;99.90;;;;;;4990144;28;20513;-48
2020/12/09 03:35:09;;;;;;;86.13;43.57;;;3.40;99.90;;;;;;4989605;28;20980;-48
2020/12/09 03:37:36;;;;;;;88.47;43.67;;;3.50;99.90;;;;;;4989449;28;20806;-48
2020/12/09 03:40:03;;;;;;;86.33;42.87;;;3.40;99.90;;;;;;4990057;28;20532;-48
2020/12/09 03:42:31;;;;;;;79.73;40.57;;;3.40;99.90;;;;;;4989946;28;20572;-49
2020/12/09 03:44:58;;;;;;;88.30;43.30;;;3.40;99.90;;;;;;4989560;28;20574;-48
2020/12/09 03:47:26;;;;;;;87.33;42.57;;;3.50;99.90;;;;;;4989926;28;20498;-48
2020/12/09 03:49:54;;;;;;;84.37;42.00;;;3.50;99.90;;;;;;4989331;28;20487;-48
2020/12/09 03:52:21;;;;;;;76.37;39.73;;;3.50;99.90;;;;;;4989854;28;20502;-49
2020/12/09 03:54:49;;;;;;;82.73;38.70;;;3.50;99.90;;;;;;4989041;28;20524;-48
2020/12/09 03:57:16;;;;;;;79.30;39.83;;;3.40;99.90;;;;;;4989793;28;20562;-48
2020/12/09 03:59:44;;;;;;;75.00;38.10;;;3.40;99.90;;;;;;4989610;28;20488;-48
2020/12/09 04:02:11;;;;;;;83.10;39.47;;;3.40;99.90;;;;;;4987235;28;20603;-48
2020/12/09 04:04:39;;;;;;;78.73;38.37;;;3.50;99.90;;;;;;4992431;28;20490;-48
2020/12/09 04:07:06;;;;;;;76.90;38.53;;;3.50;99.90;;;;;;4989700;28;20490;-49
2020/12/09 04:09:34;;;;;;;74.33;38.40;;;3.50;99.90;;;;;;4989416;28;20552;-48
2020/12/09 04:12:02;;;;;;;78.70;39.73;;;3.50;99.90;;;;;;4989480;28;20473;-48
2020/12/09 04:14:30;;;;;;;79.43;39.53;;;3.50;99.90;;;;;;4988870;28;20527;-49
2020/12/09 04:16:57;;;;;;;77.93;37.93;;;3.40;99.90;;;;;;4989369;28;20551;-49
2020/12/09 04:19:25;;;;;;;73.10;37.90;;;3.40;99.90;;;;;;4989047;28;20480;-48
2020/12/09 04:21:53;;;;;;;76.47;37.57;;;3.40;99.90;;;;;;4989174;28;20490;-48
2020/12/09 04:24:20;;;;;;;73.37;37.20;;;3.50;99.90;;;;;;4989214;28;20496;-49
2020/12/09 04:26:48;;;;;;;85.50;40.13;;;3.50;99.90;;;;;;4989436;28;20546;-49
2020/12/09 04:29:16;;;;;;;81.57;39.63;;;3.40;99.90;;;;;;4989176;28;20543;-48
2020/12/09 04:31:44;;;;;;;85.55;48.78;;;3.40;99.90;;;;;;4988420;28;20464;-48
2020/12/09 04:34:11;;;;;;;80.43;40.73;;;3.30;99.90;;;;;;4989099;28;20308;-49
2020/12/09 04:36:39;;;;;;;85.40;40.90;;;3.40;99.90;;;;;;4988905;28;20501;-48
2020/12/09 04:39:07;;;;;;;83.67;38.40;;;3.50;99.90;;;;;;4989251;28;20474;-48
2020/12/09 04:41:37;;;;;;;78.30;39.13;;;3.50;99.90;;;;;;4988864;28;20572;-48
2020/12/09 04:44:04;;;;;;;73.50;36.97;;;3.50;99.90;;;;;;4988829;28;20519;-48
2020/12/09 04:46:40;;;;;;;84.80;38.87;;;3.50;99.90;;;;;;4989496;28;20507;-48
2020/12/09 04:49:14;;;;;;;75.83;37.30;;;3.40;99.90;;;;;;4988831;28;20966;-48
2020/12/09 04:52:32;;;;;;;81.80;38.37;;;3.40;99.90;;;;;;4988830;28;20554;-48
2020/12/09 04:55:10;;;;;;;78.40;37.90;;;3.40;99.90;;;;;;4987691;28;21963;-48
2020/12/09 04:58:15;;;;;;;81.73;38.27;;;3.50;99.90;;;;;;4984506;28;20524;-49
2020/12/09 05:00:45;;;;;;;79.60;37.37;;;3.50;99.90;;;;;;4945980;28;20922;-48
2020/12/09 05:03:18;;;;;;;81.87;37.80;;;3.50;99.90;;;;;;4974407;28;20475;-48
2020/12/09 05:05:46;;;;;;;79.97;38.43;;;3.50;99.90;;;;;;4989140;28;20515;-48
2020/12/09 05:08:20;;;;;;;78.60;38.53;;;3.50;99.90;;;;;;4989177;28;20485;-49
2020/12/09 05:10:51;;;;;;;75.53;36.07;;;3.50;99.90;;;;;;4988070;28;20541;-49
2020/12/09 05:13:23;;;;;;;86.93;39.47;;;3.60;99.90;;;;;;4988854;28;21054;-48
2020/12/09 05:15:58;;;;;;;84.03;38.93;;;3.60;99.90;;;;;;4992911;28;20488;-48
2020/12/09 05:18:38;;;;;;;74.20;38.03;;;3.60;99.90;;;;;;4992068;28;20530;-48
2020/12/09 05:21:13;;;;;;;78.63;38.77;;;3.60;99.90;;;;;;4992272;28;20967;-47
2020/12/09 05:23:45;;;;;;;83.13;39.30;;;3.70;99.90;;;;;;4991875;28;20510;-48
2020/12/09 05:26:20;;;;;;;73.50;37.43;;;3.70;99.90;;;;;;4993110;28;20535;-48
2020/12/09 05:28:47;;;;;;;82.57;38.40;;;3.60;99.90;;;;;;4992397;28;20531;-48
2020/12/09 05:31:22;;;;;;;80.37;38.10;;;3.60;99.90;;;;;;4992240;28;20468;-48
2020/12/09 05:33:49;;;;;;;79.80;38.30;;;3.50;99.90;;;;;;4991690;28;20482;-48
2020/12/09 05:36:17;;;;;;;86.00;39.93;;;3.60;99.90;;;;;;4992423;28;20484;-48
2020/12/09 05:38:45;;;;;;;85.33;39.17;;;3.50;99.90;;;;;;4992432;28;21054;-48
2020/12/09 05:41:13;;;;;;;84.50;39.63;;;3.70;99.90;;;;;;4991445;28;20484;-48
2020/12/09 05:43:45;;;;;;;79.87;38.87;;;3.60;99.90;;;;;;4991828;28;20541;-48
2020/12/09 05:46:12;;;;;;;81.93;40.17;;;3.60;99.90;;;;;;4992480;28;20562;-48
2020/12/09 05:48:39;;;;;;;83.73;37.97;;;3.70;99.90;;;;;;4991895;28;20811;-48
2020/12/09 05:51:09;;;;;;;85.13;40.10;;;3.60;99.90;;;;;;4990648;28;20471;-48
2020/12/09 05:53:36;;;;;;;79.53;36.63;;;3.70;99.90;;;;;;4990830;28;20827;-49
2020/12/09 05:56:12;;;;;;;85.73;42.00;;;3.70;99.90;;;;;;4989680;28;20520;-48
2020/12/09 05:58:41;;;;;;;81.67;39.57;;;3.70;99.90;;;;;;4993712;28;20474;-48
2020/12/09 06:01:12;;;;;;;82.07;39.27;;;3.70;99.90;;;;;;4992026;28;21108;-49
2020/12/09 06:03:42;;;;;;;82.83;38.63;;;3.70;99.90;;;;;;4991097;28;20980;-48
2020/12/09 06:06:17;;;;;;;84.07;38.30;;;3.70;99.90;;;;;;4991392;28;20484;-48
2020/12/09 06:08:48;;;;;;;78.60;38.03;;;3.70;99.90;;;;;;4991629;28;20549;-50
2020/12/09 06:11:19;;;;;;;82.23;40.50;;;3.60;99.90;;;;;;4990332;28;20808;-48
2020/12/09 06:13:47;;;;;;;79.47;37.87;;;3.60;99.90;;;;;;4991018;28;20489;-48
2020/12/09 06:16:18;;;;;;;87.33;40.00;;;3.70;99.90;;;;;;4991649;28;20481;-48
2020/12/09 06:18:47;;;;;;;86.30;40.10;;;3.60;99.90;;;;;;4991364;28;20938;-48
2020/12/09 06:21:15;;;;;;;84.17;39.83;;;3.60;99.90;;;;;;4990554;28;20480;-48
2020/12/09 06:23:43;;;;;;;83.63;39.43;;;3.60;99.90;;;;;;4990623;28;20487;-48
2020/12/09 06:26:11;;;;;;;85.43;38.77;;;3.60;99.90;;;;;;4990592;28;21078;-48
2020/12/09 06:28:44;;;;;;;83.20;39.67;;;3.70;99.90;;;;;;4991240;28;20857;-49
2020/12/09 06:31:14;;;;;;;84.00;40.97;;;3.70;99.90;;;;;;4990717;28;20468;-48
2020/12/09 06:33:44;;;;;;;82.60;39.53;;;3.70;99.90;;;;;;4990489;28;20530;-48
2020/12/09 06:36:21;;;;;;;82.33;38.87;;;3.70;99.90;;;;;;4978608;28;20470;-48
2020/12/09 06:39:13;;;;;;;84.50;40.30;;;3.70;99.90;;;;;;4984614;28;20487;-48
2020/12/09 06:42:09;;;;;;;80.27;39.27;;;3.70;99.90;;;;;;4988340;28;20534;-48
2020/12/09 06:44:50;;;;;;;88.07;39.73;;;3.60;99.90;;;;;;4973546;28;20482;-48
2020/12/09 06:47:19;;;;;;;79.13;38.60;;;3.70;99.90;;;;;;4974055;28;20990;-49
2020/12/09 06:49:47;;;;;;;80.70;39.67;;;3.60;99.90;;;;;;4979742;28;20828;-48
2020/12/09 06:52:32;;;;;;;81.80;39.93;;;3.60;99.90;;;;;;4974277;28;20501;-48
2020/12/09 06:55:01;;;;;;;85.63;39.17;;;3.60;99.90;;;;;;4973857;28;20501;-48
2020/12/09 06:57:35;;;;;;;84.07;40.07;;;3.60;99.90;;;;;;4974301;28;21366;-48
2020/12/09 07:00:27;;;;;;;86.07;41.60;;;3.70;99.90;;;;;;4966342;28;20749;-48
2020/12/09 07:02:55;;;;;;;81.00;38.40;;;3.60;99.90;;;;;;4961411;28;20502;-48
2020/12/09 07:05:30;;;;;;;79.30;38.60;;;3.60;99.90;;;;;;4985772;28;20744;-48
2020/12/09 07:08:03;;;;;;;79.47;37.13;;;3.60;99.90;;;;;;4986095;28;20490;-48
2020/12/09 07:10:32;;;;;;;81.80;38.83;;;3.70;99.90;;;;;;4985127;28;20496;-48
2020/12/09 07:13:07;;;;;;;80.20;38.27;;;3.70;99.90;;;;;;4985519;28;21018;-48
2020/12/09 07:15:36;;;;;;;73.77;37.07;;;3.70;99.90;;;;;;4985553;28;20997;-48
2020/12/09 07:18:05;;;;;;;80.33;40.00;;;3.60;99.90;;;;;;4985411;28;20492;-49
2020/12/09 07:20:33;;;;;;;79.90;39.10;;;3.70;99.90;;;;;;4981415;28;20752;-48
2020/12/09 07:23:00;;;;;;;81.77;40.17;;;3.70;99.90;;;;;;4976681;28;20512;-48
2020/12/09 07:25:29;;;;;;;79.07;39.43;;;3.60;99.90;;;;;;4984224;28;20764;-48
2020/12/09 07:27:58;;;;;;;78.70;39.23;;;3.70;99.90;;;;;;4984354;28;20495;-49
2020/12/09 07:30:25;;;;;;;80.30;39.67;;;3.60;99.90;;;;;;4983542;28;20562;-48
2020/12/09 07:32:54;;;;;;;80.33;39.47;;;3.70;99.90;;;;;;4984523;28;20856;-50
2020/12/09 07:35:24;;;;;;;81.77;39.83;;;3.70;99.90;;;;;;4984090;28;20589;-48
2020/12/09 07:37:55;;;;;;;78.00;38.23;;;3.60;99.90;;;;;;4985116;28;20495;-48
2020/12/09 07:40:27;;;;;;;75.60;37.97;;;3.60;99.90;;;;;;4984600;28;20488;-49
2020/12/09 07:43:03;;;;;;;79.50;39.83;;;3.60;99.90;;;;;;4985573;28;20877;-48
2020/12/09 07:45:33;;;;;;;79.53;38.83;;;3.60;99.90;;;;;;4985011;28;20481;-48
2020/12/09 07:48:04;;;;;;;76.20;37.40;;;3.70;99.90;;;;;;4977386;28;20505;-48
2020/12/09 07:50:33;;;;;;;79.33;39.50;;;3.70;99.90;;;;;;4985271;28;20471;-49
2020/12/09 07:53:01;;;;;;;75.90;38.53;;;3.80;99.90;;;;;;4982894;28;20577;-48
2020/12/09 07:55:29;;;;;;;74.00;37.53;;;3.70;99.90;;;;;;4982607;28;20527;-48
2020/12/09 07:58:07;;;;;;;78.90;38.47;;;3.80;99.90;;;;;;4985876;28;20904;-48
2020/12/09 08:00:37;;;;;;;82.40;40.07;;;3.80;99.90;;;;;;4985081;28;20483;-48
2020/12/09 08:03:05;;;;;;;78.57;39.67;;;3.80;99.90;;;;;;4985402;28;20497;-48
2020/12/09 08:05:38;;;;;;;77.33;38.47;;;3.80;99.90;;;;;;4985877;28;20543;-48
2020/12/09 08:08:12;;;;;;;79.93;39.77;;;3.90;99.90;;;;;;4986265;28;20849;-48
2020/12/09 08:10:43;;;;;;;81.03;38.97;;;3.90;99.90;;;;;;4985006;28;20475;-49
2020/12/09 08:13:12;;;;;;;81.23;39.37;;;3.80;99.90;;;;;;4986160;28;21049;-48
2020/12/09 08:15:41;;;;;;;83.60;40.80;;;3.70;99.90;;;;;;4986180;28;20479;-48
2020/12/09 08:18:22;;;;;;;74.37;39.03;;;3.80;99.90;;;;;;4986282;28;20898;-48
2020/12/09 08:20:52;;;;;;;78.17;39.57;;;3.90;99.90;;;;;;4984568;28;20487;-48
2020/12/09 08:23:21;;;;;;;78.17;39.57;;;3.80;99.90;;;;;;4986118;28;21048;-48
2020/12/09 08:25:50;;;;;;;83.70;40.77;;;3.90;99.90;;;;;;4986707;28;20483;-48
2020/12/09 08:28:21;;;;;;;80.30;39.93;;;3.90;99.90;;;;;;4985571;28;20515;-48
2020/12/09 08:30:49;;;;;;;77.00;39.43;;;3.80;99.90;;;;;;4984447;28;20860;-50
2020/12/09 08:33:23;;;;;;;77.00;39.40;;;3.90;99.90;;;;;;4986223;28;20486;-48
2020/12/09 08:36:00;;;;;;;75.23;39.73;;;4.00;99.90;;;;;;4985268;28;20902;-48
2020/12/09 08:38:34;;;;;;;72.30;38.63;;;4.00;99.90;;;;;;4985604;28;21040;-48
2020/12/09 08:41:23;;;;;;;72.43;38.67;;;4.10;99.90;;;;;;4985574;28;20567;-48
2020/12/09 08:43:54;;;;;;;77.53;38.60;;;4.10;99.90;;;;;;4985645;28;20515;-48
2020/12/09 08:46:24;;;;;;;69.63;34.80;;;4.10;99.90;;;;;;4986322;28;20492;-48
2020/12/09 08:48:52;;;;;;;77.23;39.57;;;4.20;99.90;;;;;;4984783;28;20918;-48
2020/12/09 08:51:25;;;;;;;74.27;37.73;;;4.20;99.90;;;;;;4989199;28;20974;-48
2020/12/09 08:53:54;;;;;;;70.70;37.10;;;4.20;99.90;;;;;;4989203;28;20483;-48
2020/12/09 08:56:26;;;;;;;71.43;37.80;;;4.20;99.90;;;;;;4989413;28;20487;-49
2020/12/09 08:58:53;;;;;;;73.57;38.43;;;4.20;99.90;;;;;;4989117;28;20561;-48
2020/12/09 09:01:21;;;;;;;68.70;37.63;;;4.20;99.90;;;;;;4988631;28;20486;-48
2020/12/09 09:03:54;;;;;;;65.07;35.47;;;4.30;99.90;;;;;;4988684;28;20496;-48
2020/12/09 09:06:21;;;;;;;71.67;38.53;;;4.30;99.90;;;;;;4989770;28;20484;-48
2020/12/09 09:08:50;;;;;;;70.30;37.67;;;4.30;99.90;;;;;;4989209;28;21062;-48
2020/12/09 09:11:23;;;;;;;69.90;37.60;;;4.40;99.90;;;;;;4988645;28;20484;-49
2020/12/09 09:13:51;;;;;;;64.77;37.20;;;4.30;99.90;;;;;;4988949;28;20511;-48
2020/12/09 09:16:18;;;;;;;68.60;39.20;;;4.40;99.90;;;;;;4989322;28;20509;-48
2020/12/09 09:18:46;;;;;;;71.30;38.77;;;4.30;99.90;;;;;;4988959;28;20489;-48
2020/12/09 09:21:13;;;;;;;74.43;38.67;;;4.30;99.90;;;;;;4988626;28;20519;-48
2020/12/09 09:23:41;;;;;;;65.33;36.70;;;4.30;99.90;;;;;;4987144;28;20498;-48
2020/12/09 09:26:12;;;;;;;67.50;36.73;;;4.30;99.90;;;;;;4989680;28;20571;-48
2020/12/09 09:28:40;;;;;;;69.00;37.00;;;4.20;99.90;;;;;;4984126;28;20487;-48
2020/12/09 09:31:07;;;;;;;73.77;39.30;;;4.20;99.90;;;;;;4994353;28;20542;-48
2020/12/09 09:33:35;;;;;;;72.40;37.97;;;4.20;99.90;;;;;;4988615;28;20484;-48
2020/12/09 09:36:02;;;;;;;75.53;38.20;;;4.20;99.90;;;;;;4988857;28;20990;-48
2020/12/09 09:38:30;;;;;;;71.87;38.10;;;4.20;99.90;;;;;;4988835;28;20590;-48
2020/12/09 09:40:57;;;;;;;72.13;38.70;;;4.20;99.90;;;;;;4988082;28;20487;-48
2020/12/09 09:43:25;;;;;;;67.80;37.27;;;4.20;99.90;;;;;;4987765;28;21023;-49
2020/12/09 09:45:53;;;;;;;72.60;38.30;;;4.20;99.90;;;;;;4987810;28;20517;-48
2020/12/09 09:48:21;;;;;;;73.17;39.57;;;4.20;99.90;;;;;;4982228;28;20508;-48
2020/12/09 09:50:49;;;;;;;74.40;37.63;;;4.30;99.90;;;;;;4968287;28;20901;-48
2020/12/09 09:53:16;;;;;;;71.70;38.83;;;4.40;99.90;;;;;;4969419;28;20485;-48
2020/12/09 09:55:43;;;;;;;73.27;38.37;;;4.40;99.90;;;;;;4988260;28;20933;-48
2020/12/09 09:58:11;;;;;;;72.67;38.90;;;4.40;99.90;;;;;;4988376;28;20509;-48
2020/12/09 10:00:39;;;;;;;74.00;41.13;;;4.40;99.90;;;;;;4986114;28;20835;-48
2020/12/09 10:03:07;;;;;;;75.83;39.00;;;4.50;99.90;;;;;;4987349;28;20487;-48
2020/12/09 10:05:34;;;;;;;75.33;40.10;;;4.50;99.90;;;;;;4988518;28;20922;-48
2020/12/09 10:08:02;;;;;;;73.37;37.77;;;4.40;99.90;;;;;;4969033;28;20489;-48
2020/12/09 10:10:29;;;;;;;78.53;41.40;;;4.50;99.90;;;;;;4968145;28;20904;-49
2020/12/09 10:12:56;;;;;;;76.73;40.53;;;4.50;99.90;;;;;;4968560;28;20868;-48
2020/12/09 10:15:24;;;;;;;75.80;40.17;;;4.50;99.90;;;;;;4968583;28;20982;-48
2020/12/09 10:17:52;;;;;;;77.37;40.00;;;4.50;99.90;;;;;;4969631;28;20482;-48
2020/12/09 10:20:20;;;;;;;80.07;40.07;;;4.50;99.90;;;;;;4987566;28;21095;-48
2020/12/09 10:22:48;;;;;;;83.80;41.40;;;4.50;99.90;;;;;;4987606;28;20482;-51
2020/12/09 10:25:15;;;;;;;75.07;39.60;;;4.50;99.90;;;;;;4969856;28;20500;-48
2020/12/09 10:27:47;;;;;;;81.40;40.97;;;4.50;99.90;;;;;;4969174;28;20482;-49
2020/12/09 10:30:14;;;;;;;77.27;42.57;;;4.50;99.90;;;;;;4968152;28;20489;-49
2020/12/09 10:32:42;;;;;;;76.53;41.17;;;4.50;99.90;;;;;;4986396;28;20592;-48
2020/12/09 10:35:10;;;;;;;82.30;42.23;;;4.50;99.90;;;;;;4987855;28;20575;-48
2020/12/09 10:37:38;;;;;;;79.03;39.93;;;4.50;99.90;;;;;;4988541;28;20550;-48
2020/12/09 10:40:05;;;;;;;73.83;40.43;;;4.40;99.90;;;;;;4987809;28;20488;-48
2020/12/09 10:42:33;;;;;;;78.07;40.30;;;4.40;99.90;;;;;;4987080;28;20569;-49
2020/12/09 10:45:00;;;;;;;79.97;40.50;;;4.30;99.90;;;;;;4986270;28;20516;-49
2020/12/09 10:47:27;;;;;;;79.67;39.80;;;4.30;99.90;;;;;;4986972;28;20509;-47
2020/12/09 10:49:55;;;;;;;70.93;37.93;;;4.40;99.90;;;;;;4986984;28;20515;-49
2020/12/09 10:52:23;;;;;;;73.73;39.80;;;4.40;99.90;;;;;;4987341;28;20501;-48
2020/12/09 10:54:51;;;;;;;76.47;40.30;;;4.40;99.90;;;;;;4986825;28;20485;-48
2020/12/09 10:57:18;;;;;;;78.63;40.23;;;4.50;99.90;;;;;;4996286;28;20483;-48
2020/12/09 10:59:46;;;;;;;79.87;41.47;;;4.40;99.90;;;;;;5006974;28;20812;-48
2020/12/09 11:02:13;;;;;;;81.67;41.40;;;4.40;99.90;;;;;;4989411;28;21002;-48
2020/12/09 11:04:40;;;;;;;79.50;40.87;;;4.40;99.90;;;;;;4987120;28;20550;-48
2020/12/09 11:07:10;;;;;;;73.80;39.80;;;4.40;99.90;;;;;;5000601;28;20489;-48
2020/12/09 11:09:40;;;;;;;77.80;41.47;;;4.40;99.90;;;;;;5006634;28;20484;-48
2020/12/09 11:12:07;;;;;;;75.17;39.87;;;4.40;99.90;;;;;;5005805;28;20483;-48
2020/12/09 11:14:36;;;;;;;75.67;38.63;;;4.40;99.90;;;;;;4995207;28;20496;-48
2020/12/09 11:17:05;;;;;;;71.90;39.47;;;4.50;99.90;;;;;;4987149;28;20488;-48
2020/12/09 11:19:33;;;;;;;80.97;40.97;;;4.50;99.90;;;;;;4986765;28;20483;-48
2020/12/09 11:22:01;;;;;;;74.03;40.27;;;4.50;99.90;;;;;;4986570;28;20539;-48
2020/12/09 11:24:29;;;;;;;73.30;39.73;;;4.50;99.90;;;;;;4986747;28;20877;-48
2020/12/09 11:26:57;;;;;;;73.80;38.93;;;4.60;99.90;;;;;;4987406;28;20568;-49
2020/12/09 11:29:25;;;;;;;67.87;37.53;;;4.50;99.90;;;;;;4987722;28;20493;-48
2020/12/09 11:31:54;;;;;;;71.53;37.93;;;4.50;99.90;;;;;;4986134;28;20489;-50
2020/12/09 11:34:23;;;;;;;69.97;38.90;;;4.50;99.90;;;;;;4986834;28;20494;-48
2020/12/09 11:36:50;;;;;;;69.37;39.00;;;4.60;99.90;;;;;;4986573;28;20493;-48
2020/12/09 11:39:18;;;;;;;67.47;38.27;;;4.60;99.90;;;;;;4986768;28;20538;-48
2020/12/09 11:41:45;;;;;;;71.47;39.37;;;4.60;99.90;;;;;;4983350;28;20868;-48
2020/12/09 11:44:13;;;;;;;70.33;38.50;;;4.60;99.90;;;;;;4984627;28;20574;-48
2020/12/09 11:46:41;;;;;;;71.27;37.47;;;4.60;99.90;;;;;;4986061;28;20488;-48
2020/12/09 11:49:08;;;;;;;65.47;38.00;;;4.60;99.90;;;;;;4986576;28;20475;-48
2020/12/09 11:51:35;;;;;;;66.43;37.07;;;4.60;99.90;;;;;;4986258;28;20960;-48
2020/12/09 11:54:03;;;;;;;66.73;36.87;;;4.60;99.90;;;;;;4986475;28;20507;-48
2020/12/09 11:56:30;;;;;;;65.00;37.53;;;4.60;99.90;;;;;;4985943;28;20489;-48
2020/12/09 11:58:57;;;;;;;65.93;36.13;;;4.60;99.90;;;;;;4986448;28;20483;-48
2020/12/09 12:01:26;;;;;;;61.80;35.47;;;4.70;99.90;;;;;;4985386;28;20573;-48
2020/12/09 12:03:54;;;;;;;61.83;35.70;;;4.60;99.90;;;;;;4985924;28;20586;-48
2020/12/09 12:06:23;;;;;;;62.53;32.73;;;4.60;99.90;;;;;;4986389;28;20840;-48
2020/12/09 12:08:52;;;;;;;60.03;34.80;;;4.70;99.90;;;;;;4986435;28;20586;-48
2020/12/09 12:11:22;;;;;;;57.30;33.70;;;4.60;99.90;;;;;;4985412;28;20564;-48
2020/12/09 12:13:50;;;;;;;62.13;34.33;;;4.70;99.90;;;;;;4985382;28;20789;-48
2020/12/09 12:16:19;;;;;;;61.33;35.93;;;4.60;99.90;;;;;;4977500;28;20485;-48
2020/12/09 12:18:48;;;;;;;60.50;33.83;;;4.60;99.90;;;;;;4985685;28;20487;-48
2020/12/09 12:21:17;;;;;;;59.77;34.23;;;4.60;99.90;;;;;;4984425;28;20493;-48
2020/12/09 12:23:45;;;;;;;57.97;34.37;;;4.70;99.90;;;;;;4974434;28;21007;-48
2020/12/09 12:26:18;;;;;;;60.50;35.17;;;4.70;99.90;;;;;;4978635;28;20985;-48
2020/12/09 12:28:46;;;;;;;63.13;35.40;;;4.80;99.90;;;;;;4981667;28;20491;-48
2020/12/09 12:31:16;;;;;;;62.90;34.50;;;4.80;99.90;;;;;;4982294;28;21015;-48
2020/12/09 12:33:44;;;;;;;61.30;36.07;;;4.80;99.90;;;;;;4985494;28;21627;-48
2020/12/09 12:36:13;;;;;;;56.63;33.13;;;4.80;99.90;;;;;;4985673;28;20495;-48
2020/12/09 12:38:41;;;;;;;60.33;35.20;;;4.80;99.90;;;;;;4984939;28;20488;-48
2020/12/09 12:41:09;;;;;;;52.47;32.27;;;4.90;99.90;;;;;;4980354;28;20523;-48
2020/12/09 12:43:38;;;;;;;61.90;35.40;;;4.90;99.90;;;;;;4983118;28;20481;-48
2020/12/09 12:46:06;;;;;;;60.17;35.13;;;4.90;99.90;;;;;;4984128;28;20883;-48
2020/12/09 12:48:33;;;;;;;60.53;34.83;;;4.80;99.90;;;;;;4984328;28;20485;-48
2020/12/09 12:51:00;;;;;;;59.03;35.43;;;4.80;99.90;;;;;;4983447;28;20951;-48